Time;durP1;ratioP1;P1;durP2;ratioP2;P2;SDS_P1;SDS_P2;PMS_P1;PMS_P2;Temp;Humidity;BMP_temperature;BMP_pressure;BME280_temperature;BME280_humidity;BME280_pressure;Samples;Min_cycle;Max_cycle;Signal;HPM_P1;HPM_P2
2023/12/30 00:01:34;;;;;;;24.15;8.38;;;;;;;;;;5043011;28;25074;-69
2023/12/30 00:04:00;;;;;;;21.70;7.60;;;;;;;;;;5054913;28;25072;-70
2023/12/30 00:06:26;;;;;;;22.20;8.10;;;;;;;;;;5049431;28;25066;-69
2023/12/30 00:08:52;;;;;;;18.50;7.70;;;;;;;;;;5049287;28;25079;-70
2023/12/30 00:11:18;;;;;;;18.90;7.80;;;;;;;;;;5052905;28;25079;-70
2023/12/30 00:13:44;;;;;;;20.45;8.23;;;;;;;;;;5054317;28;25071;-71
2023/12/30 00:16:10;;;;;;;19.10;8.57;;;;;;;;;;5050474;28;25058;-69
2023/12/30 00:18:37;;;;;;;27.23;7.75;;;;;;;;;;5044338;28;25072;-67
2023/12/30 00:21:03;;;;;;;29.33;8.90;;;;;;;;;;5035242;28;25055;-69
2023/12/30 00:23:29;;;;;;;21.05;7.80;;;;;;;;;;5029921;28;25071;-70
2023/12/30 00:25:55;;;;;;;15.18;5.97;;;;;;;;;;5027445;28;25055;-70
2023/12/30 00:28:21;;;;;;;16.88;6.70;;;;;;;;;;5028454;28;25102;-70
2023/12/30 00:30:47;;;;;;;16.83;8.02;;;;;;;;;;5027119;28;25069;-69
2023/12/30 00:33:13;;;;;;;13.23;7.55;;;;;;;;;;5025850;28;25134;-68
2023/12/30 00:35:40;;;;;;;24.83;6.90;;;;;;;;;;5028048;28;25108;-69
2023/12/30 00:38:05;;;;;;;22.33;7.03;;;;;;;;;;5025830;28;25052;-69
2023/12/30 00:40:31;;;;;;;20.20;7.22;;;;;;;;;;5027081;28;25067;-69
2023/12/30 00:42:57;;;;;;;19.58;5.55;;;;;;;;;;5027294;28;25086;-68
2023/12/30 00:45:23;;;;;;;17.48;6.28;;;;;;;;;;5027012;28;25070;-69
2023/12/30 00:47:49;;;;;;;21.17;6.53;;;;;;;;;;5026339;28;25124;-68
2023/12/30 00:50:16;;;;;;;14.98;5.95;;;;;;;;;;5024004;28;25095;-68
2023/12/30 00:52:42;;;;;;;18.38;5.68;;;;;;;;;;5027575;28;25055;-68
2023/12/30 00:55:08;;;;;;;20.73;5.28;;;;;;;;;;5027869;28;25045;-70
2023/12/30 00:57:34;;;;;;;12.02;6.45;;;;;;;;;;5026856;28;25059;-68
2023/12/30 00:59:59;;;;;;;16.63;6.32;;;;;;;;;;5024175;28;25061;-69
2023/12/30 01:02:25;;;;;;;19.98;6.50;;;;;;;;;;5028902;28;25076;-69
2023/12/30 01:04:51;;;;;;;21.05;6.55;;;;;;;;;;5029965;28;25115;-69
2023/12/30 01:07:17;;;;;;;25.85;6.43;;;;;;;;;;5024054;28;25078;-68
2023/12/30 01:09:43;;;;;;;17.60;6.32;;;;;;;;;;5026200;28;25113;-69
2023/12/30 01:12:09;;;;;;;24.00;6.90;;;;;;;;;;5025684;28;25062;-69
2023/12/30 01:14:35;;;;;;;14.32;6.18;;;;;;;;;;5025900;28;25060;-69
2023/12/30 01:17:01;;;;;;;14.38;5.90;;;;;;;;;;5025186;28;25082;-69
2023/12/30 01:19:27;;;;;;;17.58;6.65;;;;;;;;;;5025429;28;25091;-69
2023/12/30 01:21:53;;;;;;;16.90;7.15;;;;;;;;;;5025694;28;25061;-69
2023/12/30 01:24:19;;;;;;;25.33;7.40;;;;;;;;;;5022869;28;25074;-69
2023/12/30 01:26:45;;;;;;;17.13;6.63;;;;;;;;;;5025785;28;25053;-69
2023/12/30 01:29:11;;;;;;;15.45;6.00;;;;;;;;;;5023816;28;25061;-69
2023/12/30 01:31:37;;;;;;;21.70;6.18;;;;;;;;;;5025345;28;25076;-68
2023/12/30 01:34:03;;;;;;;17.92;6.00;;;;;;;;;;5027277;28;25072;-69
2023/12/30 01:36:29;;;;;;;17.42;5.80;;;;;;;;;;5022149;28;25048;-70
2023/12/30 01:38:55;;;;;;;16.40;6.78;;;;;;;;;;5025011;28;25057;-68
2023/12/30 01:41:20;;;;;;;25.13;6.70;;;;;;;;;;5024430;28;25172;-69
2023/12/30 01:43:46;;;;;;;16.23;5.85;;;;;;;;;;5025039;28;25127;-70
2023/12/30 01:46:12;;;;;;;13.48;6.00;;;;;;;;;;5024119;28;25151;-71
2023/12/30 01:48:39;;;;;;;20.77;6.18;;;;;;;;;;5028945;28;25146;-68
2023/12/30 01:51:07;;;;;;;27.67;6.40;;;;;;;;;;5023684;28;25054;-69
2023/12/30 01:53:34;;;;;;;17.63;6.53;;;;;;;;;;5018851;28;25054;-68
2023/12/30 01:56:00;;;;;;;14.93;5.97;;;;;;;;;;5024497;28;25047;-70
2023/12/30 01:58:27;;;;;;;16.42;6.43;;;;;;;;;;5022818;28;25165;-69
2023/12/30 02:00:54;;;;;;;18.67;6.30;;;;;;;;;;5020402;28;25062;-69
2023/12/30 02:03:20;;;;;;;10.15;4.80;;;;;;;;;;5022437;28;25053;-69
2023/12/30 02:05:47;;;;;;;13.38;6.63;;;;;;;;;;5018307;28;25154;-69
2023/12/30 02:08:13;;;;;;;22.50;5.43;;;;;;;;;;5024121;28;25068;-69
2023/12/30 02:10:39;;;;;;;20.58;6.00;;;;;;;;;;5023212;28;25051;-69
2023/12/30 02:13:05;;;;;;;17.00;5.20;;;;;;;;;;5020907;28;25072;-69
2023/12/30 02:15:31;;;;;;;16.38;4.93;;;;;;;;;;5022125;28;25076;-69
2023/12/30 02:17:57;;;;;;;13.10;5.70;;;;;;;;;;5018046;28;25140;-68
2023/12/30 02:20:24;;;;;;;17.33;5.60;;;;;;;;;;5023343;28;25066;-68
2023/12/30 02:22:52;;;;;;;17.70;4.68;;;;;;;;;;5021631;28;25072;-68
2023/12/30 02:25:18;;;;;;;16.95;5.10;;;;;;;;;;5022676;28;25137;-68
2023/12/30 02:27:44;;;;;;;15.00;5.57;;;;;;;;;;5025166;28;25064;-68
2023/12/30 02:30:10;;;;;;;18.17;5.20;;;;;;;;;;5022124;28;25093;-68
2023/12/30 02:32:36;;;;;;;16.80;4.45;;;;;;;;;;5020192;28;25059;-68
2023/12/30 02:35:02;;;;;;;14.82;4.88;;;;;;;;;;5025782;28;25151;-67
2023/12/30 02:37:28;;;;;;;17.38;4.78;;;;;;;;;;5025017;28;25094;-68
2023/12/30 02:39:54;;;;;;;18.30;4.57;;;;;;;;;;5025604;28;25072;-68
2023/12/30 02:42:20;;;;;;;15.70;4.32;;;;;;;;;;5018559;28;25052;-68
2023/12/30 02:44:46;;;;;;;22.40;5.32;;;;;;;;;;5021254;28;25092;-68
2023/12/30 02:47:12;;;;;;;12.65;5.20;;;;;;;;;;5022606;28;25140;-68
2023/12/30 02:49:41;;;;;;;15.15;4.38;;;;;;;;;;5025576;28;25066;-67
2023/12/30 02:52:07;;;;;;;13.00;4.55;;;;;;;;;;5020581;28;25058;-68
2023/12/30 02:54:35;;;;;;;14.38;3.97;;;;;;;;;;5017726;28;25069;-68
2023/12/30 02:57:02;;;;;;;15.75;4.55;;;;;;;;;;5017955;28;25059;-68
2023/12/30 02:59:28;;;;;;;13.77;5.50;;;;;;;;;;5017392;28;25149;-68
2023/12/30 03:01:54;;;;;;;20.08;5.28;;;;;;;;;;5020773;28;25063;-68
2023/12/30 03:04:20;;;;;;;19.35;4.80;;;;;;;;;;5028268;28;25094;-69
2023/12/30 03:06:46;;;;;;;13.48;4.28;;;;;;;;;;5028587;28;25065;-67
2023/12/30 03:09:12;;;;;;;16.65;4.60;;;;;;;;;;5027248;28;25087;-69
2023/12/30 03:11:38;;;;;;;14.50;4.00;;;;;;;;;;5024823;28;25101;-68
2023/12/30 03:14:04;;;;;;;21.55;5.00;;;;;;;;;;5024584;28;25049;-69
2023/12/30 03:16:31;;;;;;;16.02;4.75;;;;;;;;;;5023132;28;25059;-68
2023/12/30 03:18:57;;;;;;;19.13;5.25;;;;;;;;;;5026146;28;25063;-69
2023/12/30 03:21:23;;;;;;;13.88;4.55;;;;;;;;;;5025669;28;25081;-69
2023/12/30 03:23:48;;;;;;;17.02;4.72;;;;;;;;;;5024483;28;25109;-68
2023/12/30 03:26:14;;;;;;;11.63;4.50;;;;;;;;;;5028609;28;25109;-68
2023/12/30 03:28:42;;;;;;;12.93;4.75;;;;;;;;;;5030465;28;25073;-68
2023/12/30 03:31:08;;;;;;;13.32;4.22;;;;;;;;;;5027715;28;25056;-67
2023/12/30 03:33:34;;;;;;;11.77;4.30;;;;;;;;;;5027236;28;25134;-68
2023/12/30 03:36:00;;;;;;;16.50;4.18;;;;;;;;;;5031071;28;25068;-69
2023/12/30 03:38:26;;;;;;;17.73;4.32;;;;;;;;;;5027578;28;25084;-67
2023/12/30 03:40:52;;;;;;;20.63;4.15;;;;;;;;;;5026251;28;25058;-67
2023/12/30 03:43:17;;;;;;;17.73;4.07;;;;;;;;;;5026828;28;25112;-68
2023/12/30 03:45:43;;;;;;;19.63;4.45;;;;;;;;;;5027936;28;25069;-68
2023/12/30 03:48:09;;;;;;;18.48;6.07;;;;;;;;;;5025317;28;25073;-68
2023/12/30 03:50:36;;;;;;;13.25;4.20;;;;;;;;;;5027263;28;25051;-69
2023/12/30 03:53:04;;;;;;;22.40;4.72;;;;;;;;;;5026893;28;25061;-67
2023/12/30 03:55:30;;;;;;;16.20;4.35;;;;;;;;;;5023949;28;25058;-68
2023/12/30 03:57:56;;;;;;;14.43;3.55;;;;;;;;;;5023956;28;25067;-68
2023/12/30 04:00:22;;;;;;;14.82;5.30;;;;;;;;;;5023782;28;26196;-68
2023/12/30 04:02:48;;;;;;;15.38;4.93;;;;;;;;;;5027518;28;25076;-68
2023/12/30 04:05:14;;;;;;;15.75;4.15;;;;;;;;;;5022548;28;25072;-67
2023/12/30 04:07:40;;;;;;;23.40;4.88;;;;;;;;;;5027569;28;25129;-68
2023/12/30 04:10:07;;;;;;;17.67;4.47;;;;;;;;;;5024838;28;25081;-68
2023/12/30 04:12:35;;;;;;;13.30;4.28;;;;;;;;;;5026624;28;25060;-68
2023/12/30 04:15:01;;;;;;;16.58;4.07;;;;;;;;;;5027200;28;25072;-70
2023/12/30 04:17:27;;;;;;;22.70;4.05;;;;;;;;;;5024419;28;25053;-68
2023/12/30 04:19:53;;;;;;;15.20;3.85;;;;;;;;;;5026542;28;25057;-68
2023/12/30 04:22:19;;;;;;;22.23;4.95;;;;;;;;;;5022348;28;25132;-68
2023/12/30 04:24:45;;;;;;;19.27;3.95;;;;;;;;;;5027319;28;25078;-67
2023/12/30 04:27:11;;;;;;;17.65;4.10;;;;;;;;;;5020480;28;25082;-68
2023/12/30 04:29:36;;;;;;;14.73;4.40;;;;;;;;;;5024961;28;25074;-67
2023/12/30 04:32:02;;;;;;;13.02;4.00;;;;;;;;;;5021670;28;25115;-69
2023/12/30 04:34:28;;;;;;;20.90;4.30;;;;;;;;;;5027774;28;25054;-68
2023/12/30 04:36:54;;;;;;;18.85;4.15;;;;;;;;;;5026078;28;25126;-68
2023/12/30 04:39:21;;;;;;;34.05;5.07;;;;;;;;;;5021028;28;25085;-68
2023/12/30 04:41:47;;;;;;;26.02;4.57;;;;;;;;;;5026625;28;25088;-68
2023/12/30 04:44:12;;;;;;;18.92;4.03;;;;;;;;;;5022591;28;25088;-68
2023/12/30 04:46:39;;;;;;;21.20;4.75;;;;;;;;;;5026213;28;25059;-68
2023/12/30 04:49:05;;;;;;;17.20;3.80;;;;;;;;;;5026213;28;25175;-67
2023/12/30 04:51:31;;;;;;;20.48;4.43;;;;;;;;;;5025594;28;25109;-68
2023/12/30 04:53:57;;;;;;;22.80;4.10;;;;;;;;;;5026246;28;25139;-68
2023/12/30 04:56:23;;;;;;;19.63;4.22;;;;;;;;;;5026269;28;25092;-69
2023/12/30 04:58:49;;;;;;;15.75;3.67;;;;;;;;;;5020813;28;25070;-69
2023/12/30 05:01:15;;;;;;;19.38;4.05;;;;;;;;;;5025464;28;25080;-69
2023/12/30 05:03:42;;;;;;;17.52;3.35;;;;;;;;;;5009159;28;25081;-67
2023/12/30 05:06:08;;;;;;;29.98;4.88;;;;;;;;;;5025805;28;25066;-67
2023/12/30 05:08:35;;;;;;;15.63;3.55;;;;;;;;;;5023436;28;25049;-68
2023/12/30 05:11:06;;;;;;;21.17;4.03;;;;;;;;;;5026034;28;25057;-69
2023/12/30 05:13:32;;;;;;;12.73;3.00;;;;;;;;;;5025012;28;25066;-68
2023/12/30 05:15:58;;;;;;;13.38;3.65;;;;;;;;;;5025035;28;25126;-69
2023/12/30 05:18:24;;;;;;;18.92;3.45;;;;;;;;;;5021499;28;25063;-67
2023/12/30 05:20:50;;;;;;;22.95;4.03;;;;;;;;;;5025872;28;25097;-68
2023/12/30 05:23:16;;;;;;;18.85;3.70;;;;;;;;;;5018574;28;25087;-67
2023/12/30 05:25:43;;;;;;;23.75;4.20;;;;;;;;;;5023621;28;25048;-69
2023/12/30 05:28:08;;;;;;;14.82;3.13;;;;;;;;;;5025232;28;25064;-69
2023/12/30 05:30:34;;;;;;;13.23;3.83;;;;;;;;;;5021015;28;25119;-69
2023/12/30 05:33:00;;;;;;;24.40;4.68;;;;;;;;;;5024630;28;25072;-68
2023/12/30 05:35:26;;;;;;;13.32;3.60;;;;;;;;;;5023950;28;25055;-68
2023/12/30 05:37:52;;;;;;;28.52;4.28;;;;;;;;;;5022827;28;25066;-68
2023/12/30 05:40:18;;;;;;;17.95;3.78;;;;;;;;;;5018736;28;25049;-69
2023/12/30 05:42:44;;;;;;;20.70;3.42;;;;;;;;;;5024155;28;25148;-67
2023/12/30 05:45:10;;;;;;;20.48;3.53;;;;;;;;;;5015807;28;25155;-67
2023/12/30 05:47:36;;;;;;;22.13;3.58;;;;;;;;;;5025569;28;25060;-67
2023/12/30 05:50:02;;;;;;;13.73;3.67;;;;;;;;;;5025466;28;25046;-68
2023/12/30 05:52:28;;;;;;;25.88;4.10;;;;;;;;;;5030032;28;30652;-68
2023/12/30 05:54:54;;;;;;;18.17;3.13;;;;;;;;;;5028075;28;25097;-67
2023/12/30 05:57:20;;;;;;;16.38;3.63;;;;;;;;;;5024717;28;25134;-68
2023/12/30 05:59:46;;;;;;;13.88;3.38;;;;;;;;;;5026358;28;25140;-67
2023/12/30 06:02:12;;;;;;;12.35;3.30;;;;;;;;;;5025283;28;25108;-69
2023/12/30 06:04:41;;;;;;;10.88;3.15;;;;;;;;;;5025391;28;25086;-68
2023/12/30 06:07:07;;;;;;;17.38;3.55;;;;;;;;;;5035725;28;25061;-69
2023/12/30 06:09:33;;;;;;;21.40;3.92;;;;;;;;;;5035921;28;25056;-68
2023/12/30 06:11:59;;;;;;;15.32;3.00;;;;;;;;;;5035940;28;25147;-67
2023/12/30 06:14:25;;;;;;;20.42;3.38;;;;;;;;;;5033493;28;25074;-67
2023/12/30 06:16:52;;;;;;;22.92;4.13;;;;;;;;;;5031308;28;25143;-68
2023/12/30 06:19:18;;;;;;;13.60;3.45;;;;;;;;;;5025560;28;25147;-68
2023/12/30 06:21:44;;;;;;;14.38;3.22;;;;;;;;;;5039450;28;25054;-69
2023/12/30 06:24:10;;;;;;;17.17;3.35;;;;;;;;;;5040356;28;25055;-69
2023/12/30 06:26:37;;;;;;;12.93;3.15;;;;;;;;;;5048217;28;25080;-71
2023/12/30 06:29:03;;;;;;;12.73;3.22;;;;;;;;;;5033896;28;25066;-68
2023/12/30 06:31:29;;;;;;;15.90;3.45;;;;;;;;;;5035113;28;25076;-69
2023/12/30 06:33:55;;;;;;;14.95;3.63;;;;;;;;;;5034465;28;25086;-67
2023/12/30 06:36:23;;;;;;;27.55;3.85;;;;;;;;;;5033190;28;25066;-68
2023/12/30 06:38:49;;;;;;;24.40;4.15;;;;;;;;;;5032090;28;25080;-68
2023/12/30 06:41:18;;;;;;;18.55;3.63;;;;;;;;;;5031690;28;25058;-68
2023/12/30 06:43:44;;;;;;;24.30;3.80;;;;;;;;;;5032206;28;25057;-69
2023/12/30 06:46:10;;;;;;;17.23;3.65;;;;;;;;;;5033304;28;25148;-69
2023/12/30 06:48:36;;;;;;;20.75;3.75;;;;;;;;;;5030923;28;25112;-68
2023/12/30 06:51:02;;;;;;;16.85;3.28;;;;;;;;;;5030444;28;25057;-68
2023/12/30 06:53:31;;;;;;;17.77;3.55;;;;;;;;;;5026123;28;25092;-68
2023/12/30 06:56:04;;;;;;;13.40;2.92;;;;;;;;;;5027026;28;25069;-68
2023/12/30 06:58:29;;;;;;;27.88;3.85;;;;;;;;;;5023589;28;25115;-69
2023/12/30 07:00:56;;;;;;;27.63;4.95;;;;;;;;;;5023210;28;25065;-70
2023/12/30 07:03:22;;;;;;;24.00;4.13;;;;;;;;;;5026830;28;25063;-68
2023/12/30 07:05:48;;;;;;;20.58;4.13;;;;;;;;;;5023650;28;25061;-70
2023/12/30 07:08:14;;;;;;;23.92;4.80;;;;;;;;;;5024999;28;25059;-68
2023/12/30 07:10:40;;;;;;;25.90;4.45;;;;;;;;;;5026088;28;25067;-68
2023/12/30 07:13:07;;;;;;;18.00;3.78;;;;;;;;;;5025368;28;25090;-68
2023/12/30 07:15:33;;;;;;;22.30;4.93;;;;;;;;;;5030272;28;25104;-69
2023/12/30 07:17:59;;;;;;;18.17;4.15;;;;;;;;;;5023174;28;25105;-68
2023/12/30 07:20:26;;;;;;;33.47;5.07;;;;;;;;;;5021154;28;25074;-68
2023/12/30 07:22:53;;;;;;;18.23;3.92;;;;;;;;;;5031190;28;25089;-69
2023/12/30 07:25:19;;;;;;;17.33;4.18;;;;;;;;;;5021463;28;25089;-68
2023/12/30 07:27:45;;;;;;;24.85;4.95;;;;;;;;;;5023038;28;25078;-69
2023/12/30 07:30:11;;;;;;;28.25;5.38;;;;;;;;;;5020298;28;25072;-68
2023/12/30 07:32:37;;;;;;;22.98;5.32;;;;;;;;;;5023703;28;25065;-68
2023/12/30 07:35:05;;;;;;;28.65;5.55;;;;;;;;;;5017147;28;25173;-68
2023/12/30 07:37:32;;;;;;;29.75;5.35;;;;;;;;;;5016464;28;25138;-70
2023/12/30 07:39:58;;;;;;;32.17;5.30;;;;;;;;;;5015810;28;25135;-69
2023/12/30 07:42:23;;;;;;;27.20;4.90;;;;;;;;;;5021345;28;25066;-68
2023/12/30 07:44:49;;;;;;;22.08;5.50;;;;;;;;;;5022234;28;25059;-68
2023/12/30 07:47:15;;;;;;;24.98;4.22;;;;;;;;;;5021831;28;25064;-68
2023/12/30 07:49:41;;;;;;;28.17;4.78;;;;;;;;;;5024529;28;25069;-67
2023/12/30 07:52:07;;;;;;;24.42;4.30;;;;;;;;;;5023018;28;25083;-68
2023/12/30 07:54:33;;;;;;;31.23;4.80;;;;;;;;;;5025144;28;25053;-68
2023/12/30 07:56:59;;;;;;;28.23;5.55;;;;;;;;;;5023805;28;25065;-67
2023/12/30 07:59:25;;;;;;;17.23;4.18;;;;;;;;;;5026111;28;25092;-67
2023/12/30 08:01:51;;;;;;;19.70;4.47;;;;;;;;;;5022079;28;25119;-68
2023/12/30 08:04:17;;;;;;;25.65;4.63;;;;;;;;;;5026009;28;25153;-68
2023/12/30 08:06:43;;;;;;;18.65;4.38;;;;;;;;;;5027039;28;25200;-69
2023/12/30 08:09:12;;;;;;;18.85;4.78;;;;;;;;;;5020748;28;25133;-66
2023/12/30 08:11:38;;;;;;;24.92;4.50;;;;;;;;;;5024696;28;25107;-68
2023/12/30 08:14:04;;;;;;;27.25;5.22;;;;;;;;;;5025175;28;25099;-68
2023/12/30 08:16:30;;;;;;;22.50;4.68;;;;;;;;;;5028525;28;25146;-69
2023/12/30 08:18:56;;;;;;;21.60;4.45;;;;;;;;;;5027933;28;25062;-68
2023/12/30 08:21:22;;;;;;;25.73;5.05;;;;;;;;;;5027567;28;25067;-68
2023/12/30 08:23:48;;;;;;;19.40;4.43;;;;;;;;;;5021527;28;25060;-68
2023/12/30 08:26:14;;;;;;;25.15;4.75;;;;;;;;;;5021415;28;25058;-68
2023/12/30 08:28:41;;;;;;;26.08;5.05;;;;;;;;;;5022533;28;25116;-68
2023/12/30 08:31:07;;;;;;;23.73;5.05;;;;;;;;;;5021433;28;25112;-68
2023/12/30 08:33:33;;;;;;;25.48;4.88;;;;;;;;;;5025352;28;25149;-69
2023/12/30 08:35:59;;;;;;;15.48;4.22;;;;;;;;;;5023361;28;25058;-69
2023/12/30 08:38:28;;;;;;;22.42;5.53;;;;;;;;;;5022990;28;25055;-68
2023/12/30 08:40:54;;;;;;;17.33;4.47;;;;;;;;;;5022779;28;25088;-67
2023/12/30 08:43:20;;;;;;;15.52;4.30;;;;;;;;;;5020820;28;25072;-69
2023/12/30 08:45:46;;;;;;;20.67;4.68;;;;;;;;;;5024082;28;25060;-69
2023/12/30 08:48:12;;;;;;;30.42;5.38;;;;;;;;;;5022363;28;25128;-69
2023/12/30 08:50:38;;;;;;;24.70;4.50;;;;;;;;;;5020994;28;25118;-68
2023/12/30 08:53:04;;;;;;;19.67;4.28;;;;;;;;;;5024705;28;25179;-68
2023/12/30 08:55:30;;;;;;;25.63;5.05;;;;;;;;;;5020952;28;25071;-68
2023/12/30 08:57:56;;;;;;;14.55;3.80;;;;;;;;;;5023190;28;25107;-68
2023/12/30 09:00:22;;;;;;;20.92;4.03;;;;;;;;;;5023629;28;25100;-68
2023/12/30 09:02:48;;;;;;;18.63;4.13;;;;;;;;;;5023521;28;25081;-68
2023/12/30 09:05:18;;;;;;;23.52;6.03;;;;;;;;;;5025588;28;25139;-68
2023/12/30 09:07:45;;;;;;;29.67;5.03;;;;;;;;;;5019946;28;25143;-67
2023/12/30 09:10:11;;;;;;;25.77;5.15;;;;;;;;;;5020300;28;25079;-69
2023/12/30 09:12:37;;;;;;;20.52;4.40;;;;;;;;;;5020929;28;25067;-69
2023/12/30 09:15:05;;;;;;;23.98;5.10;;;;;;;;;;5023899;28;25079;-69
2023/12/30 09:17:31;;;;;;;20.90;5.68;;;;;;;;;;5025606;28;25113;-69
2023/12/30 09:19:56;;;;;;;24.23;5.07;;;;;;;;;;5023784;28;25120;-68
2023/12/30 09:22:22;;;;;;;31.52;5.10;;;;;;;;;;5025158;28;25150;-70
2023/12/30 09:24:48;;;;;;;17.40;4.38;;;;;;;;;;5024351;28;25155;-69
2023/12/30 09:27:15;;;;;;;20.63;4.47;;;;;;;;;;5025947;28;25063;-69
2023/12/30 09:29:40;;;;;;;24.25;4.80;;;;;;;;;;5018679;28;25080;-69
2023/12/30 09:32:07;;;;;;;20.27;4.97;;;;;;;;;;5019779;28;25152;-69
2023/12/30 09:34:33;;;;;;;22.27;4.72;;;;;;;;;;5019690;28;25069;-68
2023/12/30 09:36:59;;;;;;;20.60;4.65;;;;;;;;;;5022638;28;25092;-69
2023/12/30 09:39:26;;;;;;;22.00;5.90;;;;;;;;;;5022883;28;25057;-70
2023/12/30 09:41:52;;;;;;;32.78;7.40;;;;;;;;;;5019507;28;25068;-70
2023/12/30 09:44:19;;;;;;;21.95;6.32;;;;;;;;;;5022970;28;25066;-69
2023/12/30 09:46:45;;;;;;;29.52;6.95;;;;;;;;;;5021197;28;25061;-70
2023/12/30 09:49:13;;;;;;;23.33;5.30;;;;;;;;;;5024772;28;25077;-69
2023/12/30 09:51:39;;;;;;;23.52;4.93;;;;;;;;;;5019477;28;25074;-70
2023/12/30 09:54:05;;;;;;;29.02;6.15;;;;;;;;;;5022329;28;25059;-69
2023/12/30 09:56:32;;;;;;;17.70;4.65;;;;;;;;;;5023682;28;25098;-69
2023/12/30 09:58:58;;;;;;;29.05;5.50;;;;;;;;;;5021176;28;25060;-70
2023/12/30 10:01:24;;;;;;;20.02;4.80;;;;;;;;;;5022504;28;25067;-70
2023/12/30 10:03:50;;;;;;;24.58;5.47;;;;;;;;;;5022971;28;25065;-70
2023/12/30 10:06:20;;;;;;;24.10;5.30;;;;;;;;;;5024358;28;25101;-70
2023/12/30 10:08:47;;;;;;;27.60;5.75;;;;;;;;;;5021899;28;25113;-68
2023/12/30 10:11:13;;;;;;;25.88;6.05;;;;;;;;;;5024533;28;25085;-70
2023/12/30 10:13:39;;;;;;;29.17;6.40;;;;;;;;;;5023079;28;25172;-69
2023/12/30 10:16:06;;;;;;;21.98;5.60;;;;;;;;;;5024763;28;25071;-69
2023/12/30 10:18:32;;;;;;;30.17;6.22;;;;;;;;;;5018064;28;25054;-69
2023/12/30 10:20:59;;;;;;;30.42;6.50;;;;;;;;;;5024141;28;25063;-70
2023/12/30 10:23:28;;;;;;;29.77;6.93;;;;;;;;;;5025188;28;25092;-69
2023/12/30 10:25:54;;;;;;;24.45;6.22;;;;;;;;;;5021231;28;25145;-70
2023/12/30 10:28:20;;;;;;;24.08;6.78;;;;;;;;;;5024878;28;25101;-70
2023/12/30 10:30:47;;;;;;;31.08;6.53;;;;;;;;;;5021724;28;25109;-70
2023/12/30 10:33:14;;;;;;;28.50;6.55;;;;;;;;;;5022893;28;25044;-70
2023/12/30 10:35:41;;;;;;;30.05;6.93;;;;;;;;;;5021107;28;25134;-69
2023/12/30 10:38:08;;;;;;;32.45;6.60;;;;;;;;;;5021870;28;25126;-70
2023/12/30 10:40:34;;;;;;;36.47;8.15;;;;;;;;;;5026417;28;25135;-70
2023/12/30 10:43:01;;;;;;;27.17;6.95;;;;;;;;;;5020294;28;25145;-69
2023/12/30 10:45:27;;;;;;;28.98;8.05;;;;;;;;;;5021600;28;25077;-70
2023/12/30 10:47:55;;;;;;;37.28;13.32;;;;;;;;;;5022662;28;25053;-69
2023/12/30 10:50:22;;;;;;;37.00;7.25;;;;;;;;;;5019518;28;25092;-70
2023/12/30 10:52:53;;;;;;;26.38;7.72;;;;;;;;;;5022004;28;25058;-71
2023/12/30 10:55:21;;;;;;;33.65;8.13;;;;;;;;;;5022040;28;25146;-70
2023/12/30 10:57:53;;;;;;;32.20;8.25;;;;;;;;;;5019189;28;25133;-69
2023/12/30 11:00:20;;;;;;;40.70;9.30;;;;;;;;;;5022566;28;25083;-69
2023/12/30 11:02:47;;;;;;;24.75;7.55;;;;;;;;;;5023547;28;25064;-69
2023/12/30 11:05:17;;;;;;;31.50;8.75;;;;;;;;;;5024005;28;25062;-69
2023/12/30 11:07:43;;;;;;;27.45;9.07;;;;;;;;;;5026188;28;25077;-70
2023/12/30 11:10:29;;;;;;;29.35;10.23;;;;;;;;;;5019832;28;25063;-70
2023/12/30 11:12:55;;;;;;;35.35;11.73;;;;;;;;;;5019477;28;25084;-70
2023/12/30 11:15:25;;;;;;;34.97;10.65;;;;;;;;;;5027490;28;25090;-70
2023/12/30 11:17:51;;;;;;;29.67;10.75;;;;;;;;;;5023830;28;25073;-71
2023/12/30 11:20:23;;;;;;;41.13;12.05;;;;;;;;;;5023639;28;25105;-71
2023/12/30 11:22:49;;;;;;;37.03;10.80;;;;;;;;;;5022413;28;25122;-71
2023/12/30 11:25:15;;;;;;;34.20;11.60;;;;;;;;;;5028080;28;25091;-69
2023/12/30 11:27:41;;;;;;;35.17;12.23;;;;;;;;;;5027083;28;25144;-69
2023/12/30 11:30:16;;;;;;;34.33;11.45;;;;;;;;;;5025478;28;25075;-70
2023/12/30 11:32:42;;;;;;;28.35;11.77;;;;;;;;;;5020924;28;25069;-71
2023/12/30 11:35:08;;;;;;;24.83;9.80;;;;;;;;;;5027287;28;25096;-70
2023/12/30 11:37:35;;;;;;;32.97;10.95;;;;;;;;;;5023463;28;25119;-70
2023/12/30 11:40:03;;;;;;;35.67;11.48;;;;;;;;;;5025895;28;25095;-70
2023/12/30 11:42:29;;;;;;;35.65;11.07;;;;;;;;;;5026404;28;25088;-70
2023/12/30 11:44:55;;;;;;;29.05;11.60;;;;;;;;;;5024995;28;25074;-68
2023/12/30 11:47:25;;;;;;;33.22;12.45;;;;;;;;;;5021565;28;25069;-70
2023/12/30 11:50:00;;;;;;;30.25;12.18;;;;;;;;;;5023924;28;25065;-70
2023/12/30 11:52:26;;;;;;;39.25;12.82;;;;;;;;;;5024895;28;25070;-69
2023/12/30 11:54:52;;;;;;;33.72;14.57;;;;;;;;;;5021859;28;25076;-70
2023/12/30 11:57:18;;;;;;;27.30;13.05;;;;;;;;;;5027328;28;25069;-70
2023/12/30 11:59:44;;;;;;;31.40;13.10;;;;;;;;;;5026826;28;25070;-70
2023/12/30 12:02:14;;;;;;;33.00;13.93;;;;;;;;;;5026567;28;25060;-70
2023/12/30 12:04:40;;;;;;;33.90;14.40;;;;;;;;;;5022957;28;25073;-70
2023/12/30 12:07:07;;;;;;;35.40;14.52;;;;;;;;;;5025506;28;25062;-70
2023/12/30 12:09:33;;;;;;;30.33;12.07;;;;;;;;;;5027786;28;25065;-72
2023/12/30 12:11:59;;;;;;;29.52;11.73;;;;;;;;;;5028004;28;25066;-73
2023/12/30 12:14:25;;;;;;;25.60;10.98;;;;;;;;;;5026860;28;25053;-70
2023/12/30 12:16:51;;;;;;;27.83;10.60;;;;;;;;;;5027472;28;25070;-70
2023/12/30 12:19:17;;;;;;;34.03;12.02;;;;;;;;;;5025337;28;25059;-72
2023/12/30 12:21:43;;;;;;;28.10;11.07;;;;;;;;;;5028513;28;25106;-71
2023/12/30 12:24:10;;;;;;;35.85;11.18;;;;;;;;;;5026233;28;25101;-72
2023/12/30 12:26:37;;;;;;;24.02;9.70;;;;;;;;;;5022543;28;25067;-70
2023/12/30 12:29:04;;;;;;;29.58;9.57;;;;;;;;;;5024831;28;25091;-70
2023/12/30 12:31:30;;;;;;;27.48;10.30;;;;;;;;;;5025693;28;25055;-72
2023/12/30 12:33:57;;;;;;;32.15;8.50;;;;;;;;;;5031087;28;25048;-71
2023/12/30 12:36:23;;;;;;;22.58;8.18;;;;;;;;;;5027072;28;25117;-71
2023/12/30 12:38:50;;;;;;;22.27;7.70;;;;;;;;;;5026902;28;25074;-71
2023/12/30 12:41:16;;;;;;;21.80;7.03;;;;;;;;;;5027963;28;25137;-71
2023/12/30 12:43:42;;;;;;;21.45;6.78;;;;;;;;;;5026363;28;25143;-71
2023/12/30 12:46:08;;;;;;;23.55;8.48;;;;;;;;;;5021144;28;25069;-70
2023/12/30 12:48:34;;;;;;;24.65;7.80;;;;;;;;;;5025101;28;25068;-70
2023/12/30 12:51:00;;;;;;;25.77;7.75;;;;;;;;;;5017532;28;25111;-70
2023/12/30 12:53:26;;;;;;;20.15;7.55;;;;;;;;;;5025122;28;25090;-70
2023/12/30 12:55:53;;;;;;;23.30;7.65;;;;;;;;;;5026325;28;25074;-70
2023/12/30 12:58:19;;;;;;;26.02;9.20;;;;;;;;;;5022255;28;25085;-70
2023/12/30 13:00:44;;;;;;;23.40;8.25;;;;;;;;;;5023413;28;25057;-70
2023/12/30 13:03:11;;;;;;;18.98;8.48;;;;;;;;;;5026359;28;25124;-70
2023/12/30 13:05:37;;;;;;;17.00;7.00;;;;;;;;;;5028128;28;25048;-70
2023/12/30 13:08:03;;;;;;;22.23;7.00;;;;;;;;;;5019023;28;25065;-71
2023/12/30 13:12:58;;;;;;;18.25;6.15;;;;;;;;;;5016528;28;25067;-70
2023/12/30 13:15:25;;;;;;;20.52;6.25;;;;;;;;;;5020148;28;25059;-71
2023/12/30 13:17:52;;;;;;;23.42;6.70;;;;;;;;;;5019634;28;25052;-69
2023/12/30 13:20:18;;;;;;;22.75;6.93;;;;;;;;;;5023203;28;25129;-69
2023/12/30 13:22:45;;;;;;;28.70;6.57;;;;;;;;;;5024173;28;25115;-70
2023/12/30 13:25:11;;;;;;;25.15;6.32;;;;;;;;;;5016555;28;25172;-70
2023/12/30 13:27:37;;;;;;;20.83;5.82;;;;;;;;;;5022609;28;25111;-70
2023/12/30 13:30:04;;;;;;;16.92;5.63;;;;;;;;;;5016816;28;25086;-70
2023/12/30 13:32:30;;;;;;;18.95;6.97;;;;;;;;;;5016631;28;25055;-69
2023/12/30 13:34:57;;;;;;;22.90;7.05;;;;;;;;;;5029663;28;25077;-70
2023/12/30 13:37:24;;;;;;;18.63;4.80;;;;;;;;;;5022687;28;25127;-70
2023/12/30 13:39:51;;;;;;;23.60;6.60;;;;;;;;;;5022229;28;25078;-70
2023/12/30 13:42:19;;;;;;;25.02;5.95;;;;;;;;;;5022565;28;25049;-71
2023/12/30 13:44:46;;;;;;;25.83;5.68;;;;;;;;;;5024701;28;25057;-70
2023/12/30 13:47:37;;;;;;;18.50;4.60;;;;;;;;;;5023908;28;25152;-71
2023/12/30 13:50:25;;;;;;;27.20;5.35;;;;;;;;;;5022327;28;25075;-71
2023/12/30 13:52:53;;;;;;;16.60;5.53;;;;;;;;;;5019749;28;25052;-71
2023/12/30 13:55:19;;;;;;;17.55;4.78;;;;;;;;;;5027787;28;25102;-71
2023/12/30 13:57:51;;;;;;;15.88;5.65;;;;;;;;;;5025069;28;25067;-71
2023/12/30 14:00:19;;;;;;;23.98;5.57;;;;;;;;;;5023495;28;25045;-70
2023/12/30 14:02:45;;;;;;;18.83;4.82;;;;;;;;;;5020647;28;25046;-71
2023/12/30 14:05:18;;;;;;;24.45;5.97;;;;;;;;;;5025424;28;25073;-71
2023/12/30 14:07:44;;;;;;;24.33;5.95;;;;;;;;;;5025633;28;25085;-71
2023/12/30 14:10:12;;;;;;;22.65;4.75;;;;;;;;;;5022845;28;25060;-71
2023/12/30 14:12:40;;;;;;;18.13;4.90;;;;;;;;;;5026826;28;25051;-70
2023/12/30 14:15:12;;;;;;;15.63;4.50;;;;;;;;;;5022231;28;25087;-71
2023/12/30 14:17:38;;;;;;;14.80;4.17;;;;;;;;;;5018673;28;25069;-70
2023/12/30 14:20:04;;;;;;;21.40;5.45;;;;;;;;;;5021540;28;25096;-71
2023/12/30 14:22:30;;;;;;;16.67;4.93;;;;;;;;;;5023962;28;25176;-71
2023/12/30 14:24:56;;;;;;;15.73;4.60;;;;;;;;;;5017565;28;25066;-71
2023/12/30 14:27:22;;;;;;;20.23;4.57;;;;;;;;;;5023230;28;25075;-72